Tensed, Idaho
Current Conditions -  °F | °C
As of 10:41 PM on Monday 20 Oct 2014 (Local Time) from KPUW Reporting Station
Overcast Overcast  
Wind Chill: 50°   Ceiling: 3900
Heat Index: 50°   Visibility: 10mi
Dew Point: 43°   Wind: 16mph
Humidity: 77%   Direction: 270°W
Pressure: 29.89"   Gusts: 28mph
Location:  47.16°N, 116.92°W
Report Text: KPUW 210541Z AUTO 27014G24KT 10SM SCT024 OVC039 10/06 A2989 RMK AO2 T01000061
Loading
Personal Weather Stations






























Interactive Weather Map
Tropical Storm Tracking
New forecast layout! Learn more

10-Day Weather Forecast

Advertisements
Track Severe Weather on mobile